createdAt,value
2019-01-29T00:01:28.700Z,506.30
2019-01-29T00:04:01.958Z,477.60
2019-01-29T00:06:34.343Z,477.20
2019-01-29T00:09:12.168Z,478.40
2019-01-29T00:11:44.454Z,460.83
2019-01-29T00:14:16.570Z,457.93
2019-01-29T00:16:48.747Z,451.63
2019-01-29T00:19:20.854Z,428.67
2019-01-29T00:21:52.934Z,396.87
2019-01-29T00:24:25.198Z,350.50
2019-01-29T00:26:57.202Z,362.97
2019-01-29T00:29:29.431Z,361.00
2019-01-29T00:32:01.474Z,351.23
2019-01-29T00:34:33.523Z,342.07
2019-01-29T00:37:05.658Z,357.43
2019-01-29T00:39:37.842Z,332.03
2019-01-29T00:42:10.063Z,353.27
2019-01-29T00:44:42.078Z,305.43
2019-01-29T00:47:14.871Z,341.80
2019-01-29T00:49:46.999Z,354.30
2019-01-29T00:52:18.994Z,331.93
2019-01-29T00:54:51.111Z,273.93
2019-01-29T00:57:23.125Z,269.97
2019-01-29T00:59:55.323Z,301.10
2019-01-29T01:02:27.337Z,209.70
2019-01-29T01:04:59.496Z,266.17
2019-01-29T01:07:31.575Z,205.90
2019-01-29T01:10:03.862Z,267.10
2019-01-29T01:12:35.949Z,262.77
2019-01-29T01:15:09.110Z,248.70
2019-01-29T01:17:41.105Z,196.43
2019-01-29T01:20:14.921Z,234.17
2019-01-29T01:22:51.123Z,184.00
2019-01-29T01:25:20.766Z,208.50
2019-01-29T01:27:52.912Z,237.83
2019-01-29T01:30:28.585Z,243.17
2019-01-29T01:33:00.751Z,263.90
2019-01-29T01:35:33.579Z,230.93
2019-01-29T01:38:05.606Z,191.67
2019-01-29T01:40:37.617Z,202.03
2019-01-29T01:43:09.655Z,175.90
2019-01-29T01:45:41.634Z,150.07
2019-01-29T01:48:13.645Z,154.43
2019-01-29T01:50:45.702Z,148.53
2019-01-29T01:53:17.655Z,151.40
2019-01-29T01:55:49.643Z,121.03
2019-01-29T01:58:21.630Z,106.23
2019-01-29T02:00:53.685Z,100.70
2019-01-29T02:03:25.785Z,95.87
2019-01-29T02:05:57.809Z,100.43
2019-01-29T02:08:29.840Z,89.90
2019-01-29T02:11:01.927Z,91.43
2019-01-29T02:13:33.955Z,82.17
2019-01-29T02:16:07.843Z,80.53
2019-01-29T02:18:39.824Z,72.17
2019-01-29T02:21:11.840Z,84.03
2019-01-29T02:23:43.906Z,74.17
2019-01-29T02:26:15.896Z,71.27
2019-01-29T02:28:47.910Z,75.93
2019-01-29T02:31:20.053Z,73.53
2019-01-29T02:33:52.203Z,60.83
2019-01-29T02:36:24.207Z,51.20
2019-01-29T02:38:56.306Z,44.03
2019-01-29T02:41:28.334Z,35.17
2019-01-29T02:44:00.426Z,30.93
2019-01-29T02:46:32.650Z,36.33
2019-01-29T02:49:04.713Z,36.63
2019-01-29T02:51:36.733Z,33.43
2019-01-29T02:54:09.021Z,31.50
2019-01-29T02:56:41.087Z,32.37
2019-01-29T02:59:13.916Z,31.10
2019-01-29T03:01:45.964Z,29.63
2019-01-29T03:04:18.109Z,24.90
2019-01-29T03:06:50.214Z,29.07
2019-01-29T03:09:22.290Z,30.93
2019-01-29T03:11:54.577Z,32.47
2019-01-29T03:14:26.706Z,31.93
2019-01-29T03:16:58.767Z,29.93
2019-01-29T03:19:30.795Z,29.57
2019-01-29T03:22:02.837Z,30.13
2019-01-29T03:24:36.042Z,28.73
2019-01-29T03:27:08.206Z,28.57
2019-01-29T03:29:40.197Z,25.27
2019-01-29T03:32:12.273Z,25.93
2019-01-29T03:34:44.317Z,23.17
2019-01-29T03:37:17.786Z,23.40
2019-01-29T03:39:50.761Z,22.30
2019-01-29T03:42:22.834Z,20.23
2019-01-29T03:44:54.865Z,19.30
2019-01-29T03:47:26.886Z,22.87
2019-01-29T03:49:59.055Z,17.97
2019-01-29T03:52:32.846Z,18.17
2019-01-29T03:55:08.606Z,17.17
2019-01-29T03:57:45.367Z,15.80
2019-01-29T04:00:31.434Z,17.53
2019-01-29T04:03:05.804Z,16.57
2019-01-29T04:05:45.024Z,16.40
2019-01-29T04:08:22.168Z,16.23
2019-01-29T04:11:09.221Z,15.20
2019-01-29T04:13:55.673Z,16.20
2019-01-29T04:16:42.269Z,18.50
2019-01-29T04:19:20.132Z,16.47
2019-01-29T04:21:57.587Z,14.13
2019-01-29T04:24:38.602Z,15.33
2019-01-29T04:27:12.708Z,15.43
2019-01-29T04:29:48.501Z,17.77
2019-01-29T04:32:30.664Z,18.07
2019-01-29T04:35:07.231Z,15.73
2019-01-29T04:37:39.295Z,14.80
2019-01-29T04:40:12.652Z,19.97
2019-01-29T04:42:44.650Z,14.93
2019-01-29T04:45:16.979Z,14.50
2019-01-29T04:47:49.008Z,15.90
2019-01-29T04:50:23.531Z,15.90
2019-01-29T04:52:55.554Z,16.27
2019-01-29T04:55:27.513Z,17.00
2019-01-29T04:57:59.495Z,17.13
2019-01-29T05:00:31.430Z,18.67
2019-01-29T05:03:03.504Z,17.97
2019-01-29T05:05:35.479Z,16.67
2019-01-29T05:08:07.473Z,15.53
2019-01-29T05:10:39.560Z,16.87
2019-01-29T05:13:11.603Z,15.53
2019-01-29T05:15:45.902Z,16.30
2019-01-29T05:18:17.985Z,16.90
2019-01-29T05:20:49.975Z,14.77
2019-01-29T05:23:22.003Z,14.43
2019-01-29T05:25:55.882Z,16.43
2019-01-29T05:28:27.864Z,13.93
2019-01-29T05:31:00.731Z,16.73
2019-01-29T05:33:35.822Z,13.03
2019-01-29T05:36:07.931Z,15.13
2019-01-29T05:38:40.364Z,16.87
2019-01-29T05:41:12.389Z,14.77
2019-01-29T05:43:44.343Z,14.80
2019-01-29T05:46:25.239Z,18.23
2019-01-29T05:48:59.970Z,14.27
2019-01-29T05:51:31.947Z,12.53
2019-01-29T05:54:03.908Z,16.37
2019-01-29T05:56:35.870Z,14.47
2019-01-29T05:59:07.903Z,15.50
2019-01-29T06:01:41.071Z,14.47
2019-01-29T06:04:13.157Z,18.73
2019-01-29T06:06:45.189Z,17.13
2019-01-29T06:09:17.238Z,18.23
2019-01-29T06:11:49.259Z,17.53
2019-01-29T06:14:21.276Z,19.10
2019-01-29T06:16:53.261Z,20.27
2019-01-29T06:19:25.430Z,20.63
2019-01-29T06:21:57.530Z,19.77
2019-01-29T06:24:29.639Z,24.83
2019-01-29T06:27:06.209Z,24.00
2019-01-29T06:29:39.507Z,19.27
2019-01-29T06:32:16.403Z,20.37
2019-01-29T06:34:48.576Z,20.97
2019-01-29T06:37:23.530Z,24.27
2019-01-29T06:39:57.304Z,25.47
2019-01-29T06:42:29.544Z,24.87
2019-01-29T06:45:02.190Z,25.87
2019-01-29T06:47:35.890Z,23.13
2019-01-29T06:50:10.801Z,24.30
2019-01-29T06:52:42.961Z,24.67
2019-01-29T06:55:17.048Z,22.33
2019-01-29T06:57:55.135Z,24.93
2019-01-29T07:00:26.501Z,23.07
2019-01-29T07:03:03.445Z,21.53
2019-01-29T07:05:35.859Z,22.43
2019-01-29T07:08:08.184Z,19.43
2019-01-29T07:10:44.281Z,20.13
2019-01-29T07:13:18.177Z,18.40
2019-01-29T07:16:12.534Z,24.23
2019-01-29T07:19:01.916Z,20.33
2019-01-29T07:21:33.959Z,20.20
2019-01-29T07:24:06.118Z,21.07
2019-01-29T07:26:38.130Z,16.47
2019-01-29T07:29:11.892Z,16.97
2019-01-29T07:31:44.074Z,19.07
2019-01-29T07:34:16.232Z,16.35
2019-01-29T07:36:48.389Z,16.10
2019-01-29T07:39:20.487Z,18.23
2019-01-29T07:41:54.938Z,17.17
2019-01-29T07:44:27.144Z,15.27
2019-01-29T07:46:59.401Z,15.37
2019-01-29T07:49:33.118Z,13.93
2019-01-29T07:52:05.542Z,18.70
2019-01-29T07:54:38.784Z,14.07
2019-01-29T07:57:10.824Z,17.30
2019-01-29T07:59:43.520Z,15.03
2019-01-29T08:02:15.596Z,14.60
2019-01-29T08:04:49.874Z,12.40
2019-01-29T08:07:22.084Z,13.70
2019-01-29T08:09:54.156Z,13.17
2019-01-29T08:12:26.199Z,14.70
2019-01-29T08:14:58.274Z,14.67
2019-01-29T08:17:30.372Z,15.23
2019-01-29T08:20:04.418Z,13.30
2019-01-29T08:22:55.869Z,15.87
2019-01-29T08:25:29.702Z,12.93
2019-01-29T08:28:01.845Z,18.13
2019-01-29T08:31:01.013Z,15.03
2019-01-29T08:33:36.098Z,15.23
2019-01-29T08:36:09.992Z,19.07
2019-01-29T08:38:42.325Z,16.33
2019-01-29T08:41:14.656Z,14.00
2019-01-29T08:43:50.539Z,17.00
2019-01-29T08:46:32.122Z,16.60
2019-01-29T08:49:04.796Z,15.57
2019-01-29T08:51:37.058Z,16.17
2019-01-29T08:54:09.456Z,15.03
2019-01-29T08:56:42.739Z,13.90
2019-01-29T08:59:15.033Z,13.57
2019-01-29T09:01:47.242Z,18.13
2019-01-29T09:04:19.969Z,15.03
2019-01-29T09:06:52.154Z,16.23
2019-01-29T09:09:24.334Z,16.80
2019-01-29T09:11:56.433Z,13.97
2019-01-29T09:14:32.060Z,17.43
2019-01-29T09:17:04.235Z,13.20
2019-01-29T09:19:37.854Z,17.27
2019-01-29T09:22:10.512Z,13.67
2019-01-29T09:24:43.682Z,13.97
2019-01-29T09:27:15.862Z,11.73
2019-01-29T09:29:49.669Z,14.43
2019-01-29T09:32:22.017Z,12.83
2019-01-29T09:34:54.040Z,15.13
2019-01-29T09:37:26.339Z,15.47
2019-01-29T09:39:58.761Z,14.60
2019-01-29T09:42:31.110Z,11.20
2019-01-29T09:45:03.385Z,9.07
2019-01-29T09:47:36.156Z,12.87
2019-01-29T09:50:09.179Z,12.53
2019-01-29T09:52:41.358Z,11.13
2019-01-29T09:55:15.458Z,10.57
2019-01-29T09:57:47.449Z,10.37
2019-01-29T10:00:28.294Z,11.47
2019-01-29T10:03:00.372Z,10.03
2019-01-29T10:05:32.414Z,9.97
2019-01-29T10:08:04.697Z,11.93
2019-01-29T10:10:36.809Z,10.50
2019-01-29T10:13:08.879Z,10.73
2019-01-29T10:15:40.971Z,10.57
2019-01-29T10:18:13.467Z,8.13
2019-01-29T10:20:45.596Z,9.33
2019-01-29T10:23:17.775Z,9.87
2019-01-29T10:25:50.174Z,8.27
2019-01-29T10:28:24.170Z,9.90
2019-01-29T10:30:56.257Z,11.67
2019-01-29T10:33:28.279Z,8.53
2019-01-29T10:36:00.443Z,9.97
2019-01-29T10:38:32.440Z,9.47
2019-01-29T10:41:04.601Z,7.63
2019-01-29T10:43:38.082Z,8.17
2019-01-29T10:46:10.080Z,10.53
2019-01-29T10:48:42.109Z,10.87
2019-01-29T10:51:14.195Z,12.93
2019-01-29T10:53:46.197Z,9.93
2019-01-29T10:56:18.250Z,8.77
2019-01-29T10:58:50.267Z,8.07
2019-01-29T11:01:22.387Z,10.33
2019-01-29T11:03:54.540Z,9.00
2019-01-29T11:06:26.552Z,9.50
2019-01-29T11:08:58.970Z,12.00
2019-01-29T11:11:30.948Z,9.03
2019-01-29T11:14:03.016Z,8.97
2019-01-29T11:16:35.053Z,10.63
2019-01-29T11:19:07.120Z,10.67
2019-01-29T11:21:39.191Z,10.80
2019-01-29T11:24:11.259Z,9.50
2019-01-29T11:26:43.287Z,10.60
2019-01-29T11:29:15.526Z,13.57
2019-01-29T11:31:47.819Z,14.43
2019-01-29T11:34:24.991Z,14.63
2019-01-29T11:37:04.875Z,11.13
2019-01-29T11:39:45.273Z,12.67
2019-01-29T11:42:30.550Z,10.57
2019-01-29T11:45:02.778Z,12.77
2019-01-29T11:47:37.727Z,16.57
2019-01-29T11:50:10.779Z,16.07
2019-01-29T11:52:42.898Z,15.17
2019-01-29T11:55:14.993Z,13.00
2019-01-29T11:57:47.241Z,11.63
2019-01-29T12:00:28.053Z,12.20
2019-01-29T12:03:01.638Z,12.73
2019-01-29T12:05:36.675Z,12.43
2019-01-29T12:08:10.209Z,13.63
2019-01-29T12:10:42.369Z,14.90
2019-01-29T12:13:14.819Z,13.50
2019-01-29T12:15:47.090Z,17.40
2019-01-29T12:18:19.903Z,19.97
2019-01-29T12:20:58.005Z,23.57
2019-01-29T12:23:31.638Z,29.50
2019-01-29T12:26:03.867Z,28.03
2019-01-29T12:28:36.083Z,36.67
2019-01-29T12:31:08.293Z,22.80
2019-01-29T12:33:40.308Z,14.50
2019-01-29T12:36:12.371Z,14.77
2019-01-29T12:38:45.386Z,14.13
2019-01-29T12:41:19.807Z,17.13
2019-01-29T12:43:51.808Z,14.20
2019-01-29T12:46:24.308Z,15.67
2019-01-29T12:48:56.417Z,14.57
2019-01-29T12:51:41.678Z,14.83
2019-01-29T12:54:13.745Z,15.97
2019-01-29T12:56:45.876Z,16.27
2019-01-29T12:59:25.875Z,17.33
2019-01-29T13:02:19.969Z,16.23
2019-01-29T13:05:12.319Z,16.60
2019-01-29T13:08:02.504Z,15.17
2019-01-29T13:11:10.124Z,11.73
2019-01-29T13:13:49.787Z,12.30
2019-01-29T13:16:24.982Z,9.10
2019-01-29T13:19:09.315Z,8.17
2019-01-29T13:21:43.683Z,11.97
2019-01-29T13:27:41.504Z,7.60
2019-01-29T13:30:31.498Z,8.07
2019-01-29T13:33:26.808Z,7.37
2019-01-29T13:36:59.605Z,11.90
2019-01-29T13:39:31.335Z,13.40
2019-01-29T13:42:03.636Z,7.93
2019-01-29T13:44:38.625Z,7.43
2019-01-29T13:47:11.914Z,12.13
2019-01-29T13:49:44.263Z,9.63
2019-01-29T13:52:18.390Z,11.00
2019-01-29T13:54:50.473Z,10.40
2019-01-29T13:57:27.689Z,9.60
2019-01-29T14:00:01.707Z,8.73
2019-01-29T14:02:34.227Z,7.30
2019-01-29T14:05:09.794Z,7.70
2019-01-29T14:07:41.929Z,10.50
2019-01-29T14:10:14.330Z,9.13
2019-01-29T14:14:14.970Z,8.67
2019-01-29T14:18:05.126Z,8.67
2019-01-29T14:20:50.819Z,8.17
2019-01-29T14:32:15.644Z,10.57
2019-01-29T14:39:26.406Z,14.30
2019-01-29T14:42:32.411Z,24.47
2019-01-29T15:01:32.958Z,12.23
2019-01-29T15:15:53.976Z,17.93
2019-01-29T15:22:34.248Z,19.07
2019-01-29T15:25:35.214Z,19.47
2019-01-29T15:28:27.719Z,24.87
2019-01-29T15:31:14.289Z,21.10
2019-01-29T15:33:54.242Z,19.23
2019-01-29T15:36:34.519Z,20.43
2019-01-29T15:39:11.268Z,20.37
2019-01-29T15:42:16.878Z,19.90
2019-01-29T15:45:09.763Z,19.63
2019-01-29T15:47:43.716Z,18.30
2019-01-29T15:50:21.124Z,24.77
2019-01-29T15:53:01.873Z,19.17
2019-01-29T15:55:54.941Z,20.33
2019-01-29T15:58:28.841Z,16.87
2019-01-29T16:01:02.868Z,24.87
2019-01-29T16:04:00.304Z,17.50
2019-01-29T16:06:32.328Z,19.60
2019-01-29T16:09:08.969Z,20.93
2019-01-29T16:11:42.260Z,20.17
2019-01-29T16:18:35.378Z,25.23
2019-01-29T16:21:43.305Z,27.50
2019-01-29T16:25:07.194Z,26.63
2019-01-29T16:31:36.394Z,41.57
2019-01-29T16:37:54.428Z,36.43
2019-01-29T16:40:24.709Z,34.03
2019-01-29T16:50:35.285Z,42.73
2019-01-29T16:53:17.155Z,34.13
2019-01-29T16:56:02.839Z,36.07
2019-01-29T16:59:31.664Z,28.97
2019-01-29T17:02:06.673Z,26.83
2019-01-29T17:13:31.447Z,25.37
2019-01-29T17:15:49.921Z,20.70
2019-01-29T17:18:57.727Z,25.90
2019-01-29T17:28:23.347Z,31.27
2019-01-29T17:31:03.407Z,36.17
2019-01-29T18:00:55.303Z,32.73
2019-01-29T18:20:16.569Z,31.20
2019-01-29T18:31:19.029Z,44.87
2019-01-29T19:29:10.847Z,132.13
2019-01-29T19:30:58.291Z,120.87
2019-01-29T19:34:14.175Z,115.83
2019-01-29T19:37:50.186Z,103.83
2019-01-29T21:05:30.606Z,61.50
2019-01-29T21:08:12.896Z,64.77
2019-01-29T21:11:10.919Z,78.43
2019-01-29T21:13:53.331Z,76.77
2019-01-29T21:16:28.331Z,69.93
2019-01-29T21:19:02.932Z,76.67
2019-01-29T21:21:56.695Z,67.70
2019-01-29T21:24:37.891Z,73.10
2019-01-29T21:28:44.279Z,72.03
2019-01-29T21:31:08.755Z,75.03
2019-01-29T21:33:57.694Z,63.97
2019-01-29T21:36:55.169Z,61.20
2019-01-29T21:47:49.653Z,61.67
2019-01-29T21:50:26.642Z,56.57
2019-01-29T21:52:59.172Z,69.33
2019-01-29T21:55:40.889Z,53.67
2019-01-29T21:58:17.921Z,56.97
2019-01-29T22:00:52.206Z,62.37
2019-01-29T22:03:24.402Z,62.60
2019-01-29T22:05:56.466Z,62.30
2019-01-29T22:08:28.655Z,72.70
2019-01-29T22:11:00.826Z,58.20
2019-01-29T22:13:33.150Z,75.63
2019-01-29T22:16:05.500Z,67.27
2019-01-29T22:19:22.608Z,76.17
2019-01-29T22:21:55.150Z,78.27
2019-01-29T22:24:27.562Z,127.70
2019-01-29T22:26:59.903Z,86.97
2019-01-29T22:29:32.215Z,84.50
2019-01-29T22:32:06.370Z,74.43
2019-01-29T22:34:38.455Z,65.53
2019-01-29T22:37:11.629Z,57.97
2019-01-29T22:39:43.861Z,61.53
2019-01-29T22:42:17.696Z,52.93
2019-01-29T22:44:49.789Z,50.07
2019-01-29T22:47:21.839Z,52.97
2019-01-29T22:49:53.860Z,51.23
2019-01-29T22:52:25.970Z,53.03
2019-01-29T22:54:58.307Z,53.23
2019-01-29T22:57:30.476Z,57.03
2019-01-29T23:00:02.923Z,51.33
2019-01-29T23:02:36.572Z,52.77
2019-01-29T23:05:10.078Z,54.67
2019-01-29T23:07:42.280Z,52.83
2019-01-29T23:10:16.784Z,46.90
2019-01-29T23:12:48.896Z,50.57
2019-01-29T23:15:20.962Z,44.93
2019-01-29T23:17:53.243Z,48.97
2019-01-29T23:20:25.296Z,55.33
2019-01-29T23:22:57.404Z,46.60
2019-01-29T23:25:29.437Z,44.90
2019-01-29T23:28:01.519Z,51.47
2019-01-29T23:30:33.625Z,49.60
2019-01-29T23:33:05.713Z,47.00
2019-01-29T23:35:38.080Z,46.80
2019-01-29T23:38:10.116Z,52.87
2019-01-29T23:40:42.220Z,44.77
2019-01-29T23:43:14.310Z,55.93
2019-01-29T23:45:46.338Z,58.87
2019-01-29T23:48:18.370Z,53.63
2019-01-29T23:50:50.428Z,62.67
2019-01-29T23:53:22.547Z,58.07
2019-01-29T23:56:49.157Z,55.33
